Time;durP1;ratioP1;P1;durP2;ratioP2;P2;SDS_P1;SDS_P2;PMS_P1;PMS_P2;Temp;Humidity;BMP_temperature;BMP_pressure;BME280_temperature;BME280_humidity;BME280_pressure;Samples;Min_cycle;Max_cycle;Signal;HPM_P1;HPM_P2
2021/03/18 00:01:16;;;;;;;7.07;4.03;;;;;;;;;;5096998;28;20039;-74
2021/03/18 00:03:45;;;;;;;15.20;4.40;;;;;;;;;;5115186;28;20059;-74
2021/03/18 00:06:11;;;;;;;9.95;4.53;;;;;;;;;;5115111;28;20122;-74
2021/03/18 00:08:38;;;;;;;9.18;4.90;;;;;;;;;;5115116;28;20036;-74
2021/03/18 00:11:07;;;;;;;8.63;4.40;;;;;;;;;;5115123;28;20046;-74
2021/03/18 00:13:33;;;;;;;8.35;4.00;;;;;;;;;;5120179;27;20027;-74
2021/03/18 00:15:59;;;;;;;12.65;5.50;;;;;;;;;;5135531;27;20039;-74
2021/03/18 00:18:31;;;;;;;13.50;5.88;;;;;;;;;;5135222;27;20535;-74
2021/03/18 00:21:01;;;;;;;10.65;5.90;;;;;;;;;;5134746;27;20046;-74
2021/03/18 00:23:30;;;;;;;8.77;5.15;;;;;;;;;;5117343;27;20038;-74
2021/03/18 00:25:56;;;;;;;8.77;4.75;;;;;;;;;;5135035;27;20027;-74
2021/03/18 00:28:21;;;;;;;6.45;3.78;;;;;;;;;;5135386;27;20054;-74
2021/03/18 00:30:47;;;;;;;11.27;4.57;;;;;;;;;;5134883;27;20465;-74
2021/03/18 00:33:13;;;;;;;8.73;4.75;;;;;;;;;;5135356;27;20148;-74
2021/03/18 00:35:38;;;;;;;15.63;5.07;;;;;;;;;;5135081;27;20039;-74
2021/03/18 00:38:04;;;;;;;8.82;4.07;;;;;;;;;;5135209;27;20039;-75
2021/03/18 00:40:33;;;;;;;9.40;4.18;;;;;;;;;;5135224;27;20055;-74
2021/03/18 00:43:08;;;;;;;9.75;5.25;;;;;;;;;;5135167;27;20346;-74
2021/03/18 00:45:37;;;;;;;5.18;3.47;;;;;;;;;;5134394;27;20035;-76
2021/03/18 00:48:05;;;;;;;7.55;3.83;;;;;;;;;;5134337;27;20023;-75
2021/03/18 00:50:41;;;;;;;5.57;3.60;;;;;;;;;;5116193;28;20042;-75
2021/03/18 00:53:12;;;;;;;9.32;4.05;;;;;;;;;;5116676;27;20156;-75
2021/03/18 00:55:39;;;;;;;12.02;4.63;;;;;;;;;;5134529;27;20062;-75
2021/03/18 00:58:05;;;;;;;10.70;4.88;;;;;;;;;;5134852;27;20023;-75
2021/03/18 01:00:44;;;;;;;9.10;6.07;;;;;;;;;;5116205;27;20023;-75
2021/03/18 01:03:11;;;;;;;7.97;4.78;;;;;;;;;;5116320;27;20034;-75
2021/03/18 01:05:48;;;;;;;7.70;4.28;;;;;;;;;;5134584;27;20035;-75
2021/03/18 01:08:16;;;;;;;11.88;5.18;;;;;;;;;;5134117;27;20031;-74
2021/03/18 01:10:47;;;;;;;8.70;4.78;;;;;;;;;;5116463;27;20031;-75
2021/03/18 01:13:19;;;;;;;8.10;4.75;;;;;;;;;;5134826;27;20039;-75
2021/03/18 01:15:46;;;;;;;9.45;4.03;;;;;;;;;;5134789;27;20477;-75
2021/03/18 01:18:12;;;;;;;8.82;4.10;;;;;;;;;;5134625;27;20034;-75
2021/03/18 01:20:37;;;;;;;6.00;3.83;;;;;;;;;;5134311;27;20387;-75
2021/03/18 01:23:03;;;;;;;7.43;3.92;;;;;;;;;;5134740;27;20109;-75
2021/03/18 01:25:28;;;;;;;6.93;4.43;;;;;;;;;;5134389;27;20034;-75
2021/03/18 01:27:54;;;;;;;9.30;3.60;;;;;;;;;;5133976;27;20047;-74
2021/03/18 01:30:22;;;;;;;6.70;3.92;;;;;;;;;;5134669;27;20164;-75
2021/03/18 01:32:48;;;;;;;9.23;3.83;;;;;;;;;;5134623;27;20022;-74
2021/03/18 01:35:17;;;;;;;6.35;4.20;;;;;;;;;;5134332;27;20570;-75
2021/03/18 01:37:43;;;;;;;8.05;5.28;;;;;;;;;;5116037;28;20122;-75
2021/03/18 01:40:11;;;;;;;7.32;5.22;;;;;;;;;;5134428;28;20035;-74
2021/03/18 01:42:38;;;;;;;6.97;4.72;;;;;;;;;;5133867;28;20034;-74
2021/03/18 01:45:06;;;;;;;8.63;4.22;;;;;;;;;;5133883;27;20050;-72
2021/03/18 01:47:32;;;;;;;6.53;3.97;;;;;;;;;;5115536;28;20524;-73
2021/03/18 01:49:57;;;;;;;8.30;4.25;;;;;;;;;;5133246;28;20027;-72
2021/03/18 01:52:23;;;;;;;10.82;3.63;;;;;;;;;;5133909;28;20070;-73
2021/03/18 01:54:48;;;;;;;7.32;3.63;;;;;;;;;;5134025;27;20051;-73
2021/03/18 01:57:14;;;;;;;6.30;3.38;;;;;;;;;;5134158;28;20503;-73
2021/03/18 01:59:39;;;;;;;6.60;3.95;;;;;;;;;;5133975;28;20023;-73
2021/03/18 02:02:05;;;;;;;6.05;4.13;;;;;;;;;;5133853;27;20050;-73
2021/03/18 02:04:30;;;;;;;7.20;4.50;;;;;;;;;;5119130;27;20100;-73
2021/03/18 02:06:56;;;;;;;10.75;4.82;;;;;;;;;;5137994;27;20039;-73
2021/03/18 02:09:21;;;;;;;7.65;4.22;;;;;;;;;;5119614;27;20080;-73
2021/03/18 02:11:46;;;;;;;7.03;4.82;;;;;;;;;;5119237;27;20035;-73
2021/03/18 02:14:12;;;;;;;8.93;4.55;;;;;;;;;;5137391;27;20039;-73
2021/03/18 02:16:41;;;;;;;10.55;4.80;;;;;;;;;;5137999;27;20035;-73
2021/03/18 02:19:47;;;;;;;10.40;4.68;;;;;;;;;;5137958;27;20118;-73
2021/03/18 02:22:33;;;;;;;6.97;4.72;;;;;;;;;;5138135;27;20070;-73
2021/03/18 02:25:02;;;;;;;9.98;4.60;;;;;;;;;;5137195;27;20046;-73
2021/03/18 02:27:39;;;;;;;8.68;4.82;;;;;;;;;;5119387;27;20500;-73
2021/03/18 02:30:20;;;;;;;8.40;4.90;;;;;;;;;;5137458;27;20027;-73
2021/03/18 02:32:54;;;;;;;7.38;4.78;;;;;;;;;;5137652;27;20043;-73
2021/03/18 02:35:27;;;;;;;7.32;4.30;;;;;;;;;;5137562;27;20441;-73
2021/03/18 02:38:03;;;;;;;10.27;5.80;;;;;;;;;;5137420;27;20035;-73
2021/03/18 02:40:33;;;;;;;11.48;6.38;;;;;;;;;;5137416;27;20138;-73
2021/03/18 02:43:03;;;;;;;12.48;7.10;;;;;;;;;;5137312;27;20046;-73
2021/03/18 02:45:33;;;;;;;10.55;5.40;;;;;;;;;;5137354;27;20035;-73
2021/03/18 02:48:01;;;;;;;7.53;5.40;;;;;;;;;;5136945;27;20126;-73
2021/03/18 02:50:29;;;;;;;10.73;5.55;;;;;;;;;;5118219;27;20077;-73
2021/03/18 02:52:58;;;;;;;8.32;5.25;;;;;;;;;;5137090;27;20031;-73
2021/03/18 02:55:24;;;;;;;14.10;5.85;;;;;;;;;;5136958;27;20031;-73
2021/03/18 02:57:52;;;;;;;8.82;5.47;;;;;;;;;;5136947;27;20031;-73
2021/03/18 03:00:18;;;;;;;8.95;4.88;;;;;;;;;;5118631;27;20031;-73
2021/03/18 03:02:44;;;;;;;9.00;5.35;;;;;;;;;;5136990;27;20560;-73
2021/03/18 03:05:13;;;;;;;9.65;5.57;;;;;;;;;;5118654;27;20041;-73
2021/03/18 03:07:41;;;;;;;7.57;5.38;;;;;;;;;;5136792;27;20031;-73
2021/03/18 03:10:08;;;;;;;10.10;5.63;;;;;;;;;;5136913;27;20067;-73
2021/03/18 03:12:35;;;;;;;9.20;6.28;;;;;;;;;;5118607;27;20076;-73
2021/03/18 03:15:03;;;;;;;7.60;5.38;;;;;;;;;;5136107;27;20023;-73
2021/03/18 03:17:28;;;;;;;11.02;5.50;;;;;;;;;;5137001;27;20494;-73
2021/03/18 03:19:58;;;;;;;15.55;6.65;;;;;;;;;;5136651;27;20106;-73
2021/03/18 03:22:24;;;;;;;9.07;5.35;;;;;;;;;;5135648;27;20047;-74
2021/03/18 03:24:51;;;;;;;9.50;6.10;;;;;;;;;;5136657;27;20067;-73
2021/03/18 03:27:17;;;;;;;9.55;5.45;;;;;;;;;;5136226;27;20035;-74
2021/03/18 03:29:44;;;;;;;11.30;5.50;;;;;;;;;;5135336;27;20118;-73
2021/03/18 03:32:11;;;;;;;9.40;5.88;;;;;;;;;;5136200;27;20034;-74
2021/03/18 03:34:38;;;;;;;9.40;5.30;;;;;;;;;;5118022;27;20087;-74
2021/03/18 03:37:05;;;;;;;8.73;5.30;;;;;;;;;;5136344;27;20096;-74
2021/03/18 03:39:31;;;;;;;6.88;5.07;;;;;;;;;;5136240;27;20076;-74
2021/03/18 03:41:57;;;;;;;9.18;4.75;;;;;;;;;;5136233;27;20031;-74
2021/03/18 03:44:23;;;;;;;9.50;5.82;;;;;;;;;;5117801;27;20031;-74
2021/03/18 03:46:48;;;;;;;8.20;4.97;;;;;;;;;;5114076;28;20049;-73
2021/03/18 03:49:14;;;;;;;7.38;5.22;;;;;;;;;;5115608;28;20059;-73
2021/03/18 03:51:53;;;;;;;6.55;4.78;;;;;;;;;;5113454;28;20401;-76
2021/03/18 03:54:21;;;;;;;9.95;5.55;;;;;;;;;;5115645;28;20421;-75
2021/03/18 03:56:54;;;;;;;10.52;6.13;;;;;;;;;;5115350;28;20031;-75
2021/03/18 03:59:22;;;;;;;8.60;5.78;;;;;;;;;;5115424;28;20045;-76
2021/03/18 04:01:51;;;;;;;12.93;6.78;;;;;;;;;;5115162;28;20061;-77
2021/03/18 04:04:22;;;;;;;6.88;5.38;;;;;;;;;;5115417;28;20039;-74
2021/03/18 04:06:54;;;;;;;12.32;6.80;;;;;;;;;;5115088;28;20036;-75
2021/03/18 04:09:21;;;;;;;17.40;9.20;;;;;;;;;;5114772;28;20034;-75
2021/03/18 04:11:48;;;;;;;15.02;6.57;;;;;;;;;;5115008;28;20028;-75
2021/03/18 04:14:15;;;;;;;8.90;6.07;;;;;;;;;;5113222;28;20427;-75
2021/03/18 04:16:46;;;;;;;10.40;6.60;;;;;;;;;;5114910;28;20038;-74
2021/03/18 04:19:17;;;;;;;11.10;6.72;;;;;;;;;;5114429;28;20032;-74
2021/03/18 04:21:46;;;;;;;11.25;6.05;;;;;;;;;;5114827;28;20028;-74
2021/03/18 04:24:13;;;;;;;11.43;6.70;;;;;;;;;;5114764;28;20027;-74
2021/03/18 04:26:40;;;;;;;12.68;7.05;;;;;;;;;;5114053;28;20091;-74
2021/03/18 04:29:06;;;;;;;12.98;8.05;;;;;;;;;;5113337;28;20058;-74
2021/03/18 04:31:35;;;;;;;18.83;9.32;;;;;;;;;;5114881;28;20082;-74
2021/03/18 04:34:01;;;;;;;17.92;9.40;;;;;;;;;;5114687;28;20043;-73
2021/03/18 04:36:30;;;;;;;11.68;8.23;;;;;;;;;;5114598;28;20587;-74
2021/03/18 04:38:58;;;;;;;15.65;9.95;;;;;;;;;;5114621;27;20036;-74
2021/03/18 04:41:25;;;;;;;20.10;10.73;;;;;;;;;;5114509;28;20035;-74
2021/03/18 04:43:51;;;;;;;17.38;9.77;;;;;;;;;;5114774;28;20442;-74
2021/03/18 04:46:17;;;;;;;23.98;10.48;;;;;;;;;;5120343;27;20039;-74
2021/03/18 04:48:44;;;;;;;20.42;10.75;;;;;;;;;;5115867;27;20122;-74
2021/03/18 04:51:11;;;;;;;21.65;9.38;;;;;;;;;;5134944;27;20031;-74
2021/03/18 04:53:37;;;;;;;14.90;10.68;;;;;;;;;;5134902;27;20031;-74
2021/03/18 04:56:05;;;;;;;19.75;11.98;;;;;;;;;;5135164;27;20047;-74
2021/03/18 04:58:33;;;;;;;17.63;10.55;;;;;;;;;;5135034;27;20042;-74
2021/03/18 05:00:59;;;;;;;21.98;11.13;;;;;;;;;;5134778;27;20422;-74
2021/03/18 05:03:26;;;;;;;21.83;12.50;;;;;;;;;;5134913;27;20027;-74
2021/03/18 05:05:55;;;;;;;18.45;11.63;;;;;;;;;;5116474;27;20035;-74
2021/03/18 05:08:22;;;;;;;21.55;11.95;;;;;;;;;;5134470;27;20035;-74
2021/03/18 05:10:49;;;;;;;20.33;11.55;;;;;;;;;;5116290;27;20035;-74
2021/03/18 05:13:15;;;;;;;18.30;11.68;;;;;;;;;;5134664;27;20066;-74
2021/03/18 05:15:41;;;;;;;21.42;11.70;;;;;;;;;;5134414;27;20131;-74
2021/03/18 05:18:12;;;;;;;23.17;12.63;;;;;;;;;;5134256;27;20037;-74
2021/03/18 05:20:40;;;;;;;24.55;12.68;;;;;;;;;;5133884;27;20473;-74
2021/03/18 05:23:08;;;;;;;19.13;11.90;;;;;;;;;;5134347;27;20039;-74
2021/03/18 05:25:34;;;;;;;22.65;12.45;;;;;;;;;;5134459;27;20022;-74
2021/03/18 05:28:00;;;;;;;22.00;13.55;;;;;;;;;;5134480;27;20054;-74
2021/03/18 05:30:27;;;;;;;22.23;13.35;;;;;;;;;;5134453;27;20489;-74
2021/03/18 05:32:58;;;;;;;25.58;14.20;;;;;;;;;;5099156;27;20465;-74
2021/03/18 05:35:23;;;;;;;30.55;16.10;;;;;;;;;;5134247;27;20023;-74
2021/03/18 05:37:49;;;;;;;29.35;14.70;;;;;;;;;;5115589;28;20094;-74
2021/03/18 05:40:15;;;;;;;31.15;17.17;;;;;;;;;;5134183;28;20039;-74
2021/03/18 05:42:41;;;;;;;34.53;17.25;;;;;;;;;;5115861;28;20031;-74
2021/03/18 05:45:10;;;;;;;38.75;20.13;;;;;;;;;;5134283;27;20042;-74
2021/03/18 05:47:35;;;;;;;33.00;19.02;;;;;;;;;;5134081;28;20126;-74
2021/03/18 05:50:04;;;;;;;31.00;19.65;;;;;;;;;;5133886;28;20126;-74
2021/03/18 05:52:30;;;;;;;30.92;19.42;;;;;;;;;;5133425;28;20031;-74
2021/03/18 05:54:58;;;;;;;35.70;20.27;;;;;;;;;;5133615;27;20034;-74
2021/03/18 05:57:24;;;;;;;40.08;20.92;;;;;;;;;;5134032;28;20111;-74
2021/03/18 05:59:50;;;;;;;35.67;18.60;;;;;;;;;;5134194;28;20465;-74
2021/03/18 06:02:16;;;;;;;25.33;15.75;;;;;;;;;;5132737;28;20129;-74
2021/03/18 06:04:42;;;;;;;29.00;16.88;;;;;;;;;;5134144;28;20070;-74
2021/03/18 06:07:08;;;;;;;27.27;17.17;;;;;;;;;;5133905;27;20133;-74
2021/03/18 06:09:37;;;;;;;31.25;17.85;;;;;;;;;;5133883;28;20118;-74
2021/03/18 06:12:04;;;;;;;27.60;16.25;;;;;;;;;;5115553;28;20031;-74
2021/03/18 06:14:30;;;;;;;29.05;17.88;;;;;;;;;;5116578;28;20039;-74
2021/03/18 06:16:59;;;;;;;29.90;17.17;;;;;;;;;;5133831;27;20039;-74
2021/03/18 06:19:25;;;;;;;30.60;18.55;;;;;;;;;;5133832;28;20102;-74
2021/03/18 06:21:52;;;;;;;26.35;17.05;;;;;;;;;;5133267;28;20422;-74
2021/03/18 06:24:19;;;;;;;27.58;16.77;;;;;;;;;;5133753;28;20058;-74
2021/03/18 06:26:44;;;;;;;29.90;16.80;;;;;;;;;;5115292;28;20468;-74
2021/03/18 06:29:30;;;;;;;26.23;15.82;;;;;;;;;;5133736;28;20046;-74
2021/03/18 06:32:00;;;;;;;25.33;16.13;;;;;;;;;;5133476;28;20430;-74
2021/03/18 06:34:45;;;;;;;28.95;16.67;;;;;;;;;;5133883;28;20043;-74
2021/03/18 06:37:31;;;;;;;27.05;16.33;;;;;;;;;;5113122;28;20043;-74
2021/03/18 06:39:59;;;;;;;28.90;16.88;;;;;;;;;;5113078;28;20035;-74
2021/03/18 06:42:25;;;;;;;28.75;16.38;;;;;;;;;;5112934;28;20040;-74
2021/03/18 06:45:10;;;;;;;25.35;15.90;;;;;;;;;;5113117;28;20101;-73
2021/03/18 06:47:52;;;;;;;27.60;15.57;;;;;;;;;;5094896;28;20086;-73
2021/03/18 06:50:23;;;;;;;28.70;15.50;;;;;;;;;;5136697;27;20303;-73
2021/03/18 06:52:50;;;;;;;26.48;16.80;;;;;;;;;;5137317;27;20349;-74
2021/03/18 06:55:26;;;;;;;26.65;18.10;;;;;;;;;;5137260;27;20034;-74
2021/03/18 06:58:09;;;;;;;;;;;;;;;;;;5137792;27;20031;-74
2021/03/18 07:00:36;;;;;;;24.65;16.10;;;;;;;;;;5118693;27;19948;-74
2021/03/18 07:03:01;;;;;;;26.48;17.58;;;;;;;;;;5136932;27;20381;-74
2021/03/18 07:05:26;;;;;;;27.67;17.90;;;;;;;;;;5137010;27;20046;-73
2021/03/18 07:07:52;;;;;;;34.63;18.60;;;;;;;;;;5136970;27;20026;-73
2021/03/18 07:10:32;;;;;;;33.60;18.73;;;;;;;;;;5118869;27;20485;-74
2021/03/18 07:13:17;;;;;;;32.45;19.58;;;;;;;;;;5136531;27;20067;-78
2021/03/18 07:15:42;;;;;;;28.08;19.15;;;;;;;;;;5117935;27;20453;-74
2021/03/18 07:18:11;;;;;;;27.58;17.63;;;;;;;;;;5136801;27;20080;-74
2021/03/18 07:20:36;;;;;;;33.15;18.95;;;;;;;;;;5131184;27;20102;-74
2021/03/18 07:23:12;;;;;;;32.15;20.45;;;;;;;;;;5116207;28;20115;-74
2021/03/18 07:25:45;;;;;;;32.67;19.63;;;;;;;;;;5117738;27;20036;-75
2021/03/18 07:28:10;;;;;;;31.27;19.67;;;;;;;;;;5136517;27;20030;-72
2021/03/18 07:30:37;;;;;;;32.78;20.15;;;;;;;;;;5136292;27;20035;-72
2021/03/18 07:33:05;;;;;;;33.10;18.70;;;;;;;;;;5136030;27;20042;-75
2021/03/18 07:35:31;;;;;;;30.38;18.25;;;;;;;;;;5136219;27;20072;-75
2021/03/18 07:37:57;;;;;;;32.30;20.80;;;;;;;;;;5117898;27;20062;-75
2021/03/18 07:40:26;;;;;;;35.95;19.75;;;;;;;;;;5134506;27;20392;-76
2021/03/18 07:42:53;;;;;;;32.70;20.75;;;;;;;;;;5136146;27;20552;-75
2021/03/18 07:45:20;;;;;;;28.17;19.33;;;;;;;;;;5135768;27;20118;-75
2021/03/18 07:47:47;;;;;;;31.13;20.05;;;;;;;;;;5133858;27;20172;-76
2021/03/18 07:50:15;;;;;;;34.40;20.27;;;;;;;;;;5130268;27;20084;-76
2021/03/18 07:52:45;;;;;;;29.85;19.63;;;;;;;;;;5095749;28;20035;-76
2021/03/18 07:55:14;;;;;;;31.25;19.30;;;;;;;;;;5114188;28;20035;-76
2021/03/18 07:57:42;;;;;;;27.90;19.67;;;;;;;;;;5115175;28;20032;-75
2021/03/18 08:00:12;;;;;;;29.20;19.50;;;;;;;;;;5121026;27;20035;-75
2021/03/18 08:02:38;;;;;;;28.45;18.95;;;;;;;;;;5135662;27;20031;-75
2021/03/18 08:05:05;;;;;;;31.23;19.85;;;;;;;;;;5127174;27;20115;-75
2021/03/18 08:07:47;;;;;;;27.33;18.80;;;;;;;;;;5115197;28;20106;-75
2021/03/18 08:10:14;;;;;;;29.67;19.13;;;;;;;;;;5131585;27;20039;-74
2021/03/18 08:12:50;;;;;;;29.83;19.88;;;;;;;;;;5136105;27;20039;-74
2021/03/18 08:15:23;;;;;;;30.88;19.85;;;;;;;;;;5135951;27;20045;-73
2021/03/18 08:17:53;;;;;;;26.80;18.67;;;;;;;;;;5127677;27;20355;-72
2021/03/18 08:20:41;;;;;;;27.60;19.38;;;;;;;;;;5118837;27;20380;-72
2021/03/18 08:23:22;;;;;;;28.67;18.25;;;;;;;;;;5120628;27;20122;-72
2021/03/18 08:25:59;;;;;;;28.45;19.65;;;;;;;;;;5135582;27;20043;-72
2021/03/18 08:28:46;;;;;;;30.80;20.40;;;;;;;;;;5135284;27;20042;-72
2021/03/18 08:31:12;;;;;;;29.20;18.30;;;;;;;;;;5135617;27;20114;-72
2021/03/18 08:33:46;;;;;;;25.55;19.08;;;;;;;;;;5117241;27;20111;-72
2021/03/18 08:36:21;;;;;;;31.38;19.15;;;;;;;;;;5135346;27;20042;-72
2021/03/18 08:38:53;;;;;;;29.63;19.20;;;;;;;;;;5135215;27;20039;-72
2021/03/18 08:41:32;;;;;;;27.75;18.73;;;;;;;;;;5135272;27;20159;-72
2021/03/18 08:44:16;;;;;;;27.80;18.40;;;;;;;;;;5116926;27;20039;-72
2021/03/18 08:46:52;;;;;;;27.13;18.10;;;;;;;;;;5134868;27;20060;-72
2021/03/18 08:49:42;;;;;;;30.05;20.25;;;;;;;;;;5134223;27;20256;-72
2021/03/18 08:52:12;;;;;;;28.85;19.83;;;;;;;;;;5116207;27;20027;-72
2021/03/18 08:54:38;;;;;;;27.23;19.58;;;;;;;;;;5134964;27;20082;-72
2021/03/18 08:57:09;;;;;;;25.15;18.17;;;;;;;;;;5134957;27;20497;-72
2021/03/18 08:59:35;;;;;;;27.92;20.92;;;;;;;;;;5116583;27;20031;-72
2021/03/18 09:02:11;;;;;;;31.65;21.25;;;;;;;;;;5134971;27;20026;-72
2021/03/18 09:04:41;;;;;;;31.60;19.92;;;;;;;;;;5116596;27;20050;-72
2021/03/18 09:07:11;;;;;;;30.08;19.77;;;;;;;;;;5116241;27;20031;-72
2021/03/18 09:09:37;;;;;;;29.10;19.85;;;;;;;;;;5134677;27;20038;-72
2021/03/18 09:12:04;;;;;;;32.17;20.85;;;;;;;;;;5134328;27;20030;-72
2021/03/18 09:14:30;;;;;;;29.17;20.40;;;;;;;;;;5134795;27;20399;-72
2021/03/18 09:17:06;;;;;;;28.85;20.55;;;;;;;;;;5134591;27;20027;-72
2021/03/18 09:19:32;;;;;;;28.98;20.52;;;;;;;;;;5134008;27;20114;-72
2021/03/18 09:21:58;;;;;;;29.95;20.13;;;;;;;;;;5116281;27;20118;-72
2021/03/18 09:24:33;;;;;;;29.38;19.40;;;;;;;;;;5134605;27;20500;-72
2021/03/18 09:27:09;;;;;;;26.70;18.80;;;;;;;;;;5115489;27;20042;-73
2021/03/18 09:29:35;;;;;;;27.40;20.17;;;;;;;;;;5116028;27;20039;-73
2021/03/18 09:32:05;;;;;;;31.92;20.95;;;;;;;;;;5134667;27;20046;-74
2021/03/18 09:34:36;;;;;;;29.02;19.25;;;;;;;;;;5134492;27;20046;-74
2021/03/18 09:37:02;;;;;;;25.92;18.75;;;;;;;;;;5115960;28;20049;-76
2021/03/18 09:39:28;;;;;;;27.10;18.42;;;;;;;;;;5115707;28;20434;-74
2021/03/18 09:42:02;;;;;;;32.78;22.30;;;;;;;;;;5133736;28;20503;-73
2021/03/18 09:44:30;;;;;;;30.98;21.00;;;;;;;;;;5116091;28;20035;-75
2021/03/18 09:47:06;;;;;;;26.98;19.48;;;;;;;;;;5133964;27;20047;-75
2021/03/18 09:49:37;;;;;;;27.83;17.63;;;;;;;;;;5115966;28;20088;-73
2021/03/18 09:52:16;;;;;;;27.63;20.10;;;;;;;;;;5115730;28;20076;-73
2021/03/18 09:54:41;;;;;;;31.08;20.30;;;;;;;;;;5115820;28;20031;-73
2021/03/18 09:57:09;;;;;;;25.70;17.85;;;;;;;;;;5134153;27;20126;-73
2021/03/18 09:59:35;;;;;;;23.88;17.10;;;;;;;;;;5134349;28;20461;-73
2021/03/18 10:02:01;;;;;;;25.63;18.40;;;;;;;;;;5133241;28;20057;-73
2021/03/18 10:04:26;;;;;;;23.30;17.17;;;;;;;;;;5134166;28;20508;-73
2021/03/18 10:06:53;;;;;;;26.42;19.02;;;;;;;;;;5133927;27;20035;-73
2021/03/18 10:09:20;;;;;;;22.95;17.65;;;;;;;;;;5133969;28;20126;-73
2021/03/18 10:11:48;;;;;;;24.48;17.73;;;;;;;;;;5115710;28;20035;-73
2021/03/18 10:14:15;;;;;;;22.98;18.00;;;;;;;;;;5133469;28;20441;-73
2021/03/18 10:16:42;;;;;;;22.83;16.42;;;;;;;;;;5133999;27;20035;-73
2021/03/18 10:19:09;;;;;;;24.25;16.73;;;;;;;;;;5134116;28;20493;-74
2021/03/18 10:21:34;;;;;;;28.65;17.88;;;;;;;;;;5134018;28;20034;-74
2021/03/18 10:24:00;;;;;;;23.30;17.73;;;;;;;;;;5134746;27;20172;-74
2021/03/18 10:26:27;;;;;;;27.05;18.77;;;;;;;;;;5119524;27;20181;-73
2021/03/18 10:29:00;;;;;;;25.67;17.88;;;;;;;;;;5137878;27;20350;-74
2021/03/18 10:31:25;;;;;;;26.17;17.15;;;;;;;;;;5117277;28;20046;-75
2021/03/18 10:33:51;;;;;;;22.52;16.00;;;;;;;;;;5118335;28;20040;-75
2021/03/18 10:36:38;;;;;;;20.60;14.77;;;;;;;;;;5118016;28;20031;-76
2021/03/18 10:39:09;;;;;;;24.75;15.18;;;;;;;;;;5117286;28;20028;-75
2021/03/18 10:41:54;;;;;;;19.92;14.65;;;;;;;;;;5118281;28;20477;-75
2021/03/18 10:44:20;;;;;;;19.67;13.82;;;;;;;;;;5117264;28;20047;-75
2021/03/18 10:46:46;;;;;;;22.65;14.77;;;;;;;;;;5095554;28;20094;-75
2021/03/18 10:49:15;;;;;;;21.30;15.15;;;;;;;;;;5101689;28;20024;-75
2021/03/18 10:51:45;;;;;;;19.20;14.40;;;;;;;;;;5116933;28;20070;-76
2021/03/18 10:54:22;;;;;;;19.88;14.25;;;;;;;;;;5116951;28;20039;-74
2021/03/18 10:56:52;;;;;;;22.17;14.98;;;;;;;;;;5116252;28;20097;-75
2021/03/18 10:59:19;;;;;;;23.20;15.45;;;;;;;;;;5117097;28;20036;-76
2021/03/18 11:01:45;;;;;;;22.33;16.25;;;;;;;;;;5117761;28;20044;-73
2021/03/18 11:04:12;;;;;;;26.42;16.52;;;;;;;;;;5116828;28;20023;-75
2021/03/18 11:06:51;;;;;;;25.65;17.92;;;;;;;;;;5116438;28;20031;-76
2021/03/18 11:09:18;;;;;;;22.52;15.50;;;;;;;;;;5117466;28;20099;-75
2021/03/18 11:11:54;;;;;;;27.00;15.45;;;;;;;;;;5117317;28;20480;-75
2021/03/18 11:14:20;;;;;;;22.33;16.02;;;;;;;;;;5116983;28;20031;-76
2021/03/18 11:16:45;;;;;;;19.98;15.20;;;;;;;;;;5115478;28;20124;-77
2021/03/18 11:19:13;;;;;;;25.27;14.57;;;;;;;;;;5116996;27;20027;-77
2021/03/18 11:21:44;;;;;;;19.83;14.50;;;;;;;;;;5117457;28;20042;-77
2021/03/18 11:24:14;;;;;;;18.65;13.45;;;;;;;;;;5117604;28;20078;-77
2021/03/18 11:26:42;;;;;;;22.42;14.73;;;;;;;;;;5117445;28;20076;-78
2021/03/18 11:29:13;;;;;;;23.90;14.55;;;;;;;;;;5118249;28;20394;-78
2021/03/18 11:31:44;;;;;;;20.35;14.18;;;;;;;;;;5116915;28;20050;-75
2021/03/18 11:34:17;;;;;;;16.98;12.77;;;;;;;;;;5115885;28;20028;-76
2021/03/18 11:36:44;;;;;;;20.73;13.52;;;;;;;;;;5115866;28;20036;-77
2021/03/18 11:39:10;;;;;;;23.73;13.77;;;;;;;;;;5116427;28;20517;-76
2021/03/18 11:41:36;;;;;;;23.45;14.43;;;;;;;;;;5116896;27;20084;-76
2021/03/18 11:44:02;;;;;;;22.40;13.82;;;;;;;;;;5114751;28;20036;-75
2021/03/18 11:46:28;;;;;;;21.38;13.13;;;;;;;;;;5120545;27;20615;-75
2021/03/18 11:48:54;;;;;;;20.50;12.50;;;;;;;;;;5123189;27;20031;-75
2021/03/18 11:51:20;;;;;;;22.23;13.65;;;;;;;;;;5136657;27;20042;-75
2021/03/18 11:53:47;;;;;;;22.48;12.93;;;;;;;;;;5118055;27;20114;-75
2021/03/18 11:56:13;;;;;;;20.20;13.68;;;;;;;;;;5136608;27;20031;-75
2021/03/18 11:58:39;;;;;;;19.67;12.60;;;;;;;;;;5117956;27;20049;-75
2021/03/18 12:01:04;;;;;;;20.65;12.88;;;;;;;;;;5117944;27;20035;-75
2021/03/18 12:03:30;;;;;;;20.13;12.27;;;;;;;;;;5136073;27;20042;-75
2021/03/18 12:05:55;;;;;;;19.98;12.95;;;;;;;;;;5135449;27;20461;-75
2021/03/18 12:08:21;;;;;;;16.55;11.38;;;;;;;;;;5117619;27;20035;-75
2021/03/18 12:10:46;;;;;;;16.60;10.15;;;;;;;;;;5136060;27;20077;-75
2021/03/18 12:13:11;;;;;;;14.98;11.50;;;;;;;;;;5135827;27;20046;-75
2021/03/18 12:15:37;;;;;;;13.63;10.00;;;;;;;;;;5134763;27;20062;-75
2021/03/18 12:18:02;;;;;;;13.95;9.82;;;;;;;;;;5117562;27;20092;-75
2021/03/18 12:20:29;;;;;;;13.65;8.77;;;;;;;;;;5134876;27;20035;-75
2021/03/18 12:22:56;;;;;;;15.25;8.20;;;;;;;;;;5135710;27;20035;-75
2021/03/18 12:25:21;;;;;;;13.40;7.80;;;;;;;;;;5135176;27;20076;-75
2021/03/18 12:27:50;;;;;;;11.73;7.50;;;;;;;;;;5117080;27;20035;-75
2021/03/18 12:30:18;;;;;;;13.05;7.78;;;;;;;;;;5135288;27;20027;-75
2021/03/18 12:32:44;;;;;;;11.20;7.45;;;;;;;;;;5135606;27;20038;-75
2021/03/18 12:35:14;;;;;;;12.25;8.15;;;;;;;;;;5135237;27;20117;-75
2021/03/18 12:37:40;;;;;;;10.32;7.10;;;;;;;;;;5135398;27;20380;-75
2021/03/18 12:40:07;;;;;;;11.93;7.70;;;;;;;;;;5135238;27;20023;-75
2021/03/18 12:42:33;;;;;;;7.28;4.53;;;;;;;;;;5116617;27;20027;-75
2021/03/18 12:44:58;;;;;;;11.43;4.97;;;;;;;;;;5135218;27;20507;-75
2021/03/18 12:47:25;;;;;;;8.45;4.82;;;;;;;;;;5133687;27;20078;-75
2021/03/18 12:49:51;;;;;;;8.52;5.13;;;;;;;;;;5114444;28;20032;-76
2021/03/18 12:52:16;;;;;;;10.55;5.07;;;;;;;;;;5079594;28;20040;-75
2021/03/18 12:54:42;;;;;;;6.60;3.97;;;;;;;;;;5114423;28;20069;-76
2021/03/18 12:57:08;;;;;;;6.28;3.63;;;;;;;;;;5119217;27;20024;-75
2021/03/18 12:59:33;;;;;;;5.88;3.60;;;;;;;;;;5134877;27;20035;-75
2021/03/18 13:01:59;;;;;;;7.00;3.08;;;;;;;;;;5134215;27;20031;-75
2021/03/18 13:04:25;;;;;;;7.82;3.30;;;;;;;;;;5134914;27;20046;-76
2021/03/18 13:06:54;;;;;;;7.57;2.78;;;;;;;;;;5134796;27;20035;-76
2021/03/18 13:09:20;;;;;;;6.13;3.17;;;;;;;;;;5134378;27;20042;-76
2021/03/18 13:11:46;;;;;;;6.72;3.13;;;;;;;;;;5133963;27;20027;-75
2021/03/18 13:14:12;;;;;;;7.50;3.25;;;;;;;;;;5134582;27;20031;-75
2021/03/18 13:16:39;;;;;;;7.05;3.85;;;;;;;;;;5134572;27;20461;-76
2021/03/18 13:19:05;;;;;;;8.27;3.75;;;;;;;;;;5134774;27;20029;-76
2021/03/18 13:21:30;;;;;;;7.85;3.90;;;;;;;;;;5116412;27;20496;-76
2021/03/18 13:23:56;;;;;;;6.95;4.07;;;;;;;;;;5135347;27;20105;-76
2021/03/18 13:26:21;;;;;;;8.73;4.47;;;;;;;;;;5134460;27;20039;-76
2021/03/18 13:28:47;;;;;;;11.05;4.90;;;;;;;;;;5133755;27;20046;-75
2021/03/18 13:31:12;;;;;;;11.65;5.15;;;;;;;;;;5134471;27;20022;-76
2021/03/18 13:33:37;;;;;;;8.05;5.18;;;;;;;;;;5134599;27;20054;-76
2021/03/18 13:36:03;;;;;;;11.98;5.38;;;;;;;;;;5116076;28;20035;-76
2021/03/18 13:38:31;;;;;;;12.93;4.95;;;;;;;;;;5134487;27;20027;-76
2021/03/18 13:40:57;;;;;;;10.38;4.60;;;;;;;;;;5134142;27;20414;-76
2021/03/18 13:43:23;;;;;;;9.95;5.05;;;;;;;;;;5133834;28;20095;-76
2021/03/18 13:45:48;;;;;;;10.90;4.63;;;;;;;;;;5134279;27;20157;-76
2021/03/18 13:48:14;;;;;;;10.32;4.88;;;;;;;;;;5134470;28;20037;-76
2021/03/18 13:50:44;;;;;;;9.52;4.82;;;;;;;;;;5134282;28;20343;-76
2021/03/18 13:53:10;;;;;;;10.77;5.38;;;;;;;;;;5116096;28;20073;-76
2021/03/18 13:55:36;;;;;;;12.32;5.88;;;;;;;;;;5115889;28;20035;-76
2021/03/18 13:58:01;;;;;;;10.00;5.40;;;;;;;;;;5135353;27;20118;-76
2021/03/18 14:00:27;;;;;;;10.40;5.75;;;;;;;;;;5120211;27;20034;-76
2021/03/18 14:02:53;;;;;;;8.68;4.97;;;;;;;;;;5138588;27;20031;-76
2021/03/18 14:05:19;;;;;;;10.02;5.60;;;;;;;;;;5138228;27;20042;-76
2021/03/18 14:07:44;;;;;;;10.77;5.50;;;;;;;;;;5138318;27;20035;-76
2021/03/18 14:10:11;;;;;;;9.93;4.95;;;;;;;;;;5138065;27;20035;-76
2021/03/18 14:12:39;;;;;;;10.90;4.78;;;;;;;;;;5119670;27;20079;-76
2021/03/18 14:15:09;;;;;;;10.45;4.30;;;;;;;;;;5137514;27;20468;-76
2021/03/18 14:17:34;;;;;;;11.00;4.93;;;;;;;;;;5138036;27;20553;-76
2021/03/18 14:20:00;;;;;;;8.57;4.55;;;;;;;;;;5119650;27;20042;-76
2021/03/18 14:22:25;;;;;;;12.55;5.45;;;;;;;;;;5118747;27;20030;-76
2021/03/18 14:24:52;;;;;;;10.15;5.13;;;;;;;;;;5119536;27;20483;-76
2021/03/18 14:27:17;;;;;;;11.18;5.43;;;;;;;;;;5137825;27;20476;-76
2021/03/18 14:29:43;;;;;;;9.20;5.00;;;;;;;;;;5138048;27;20064;-76
2021/03/18 14:32:08;;;;;;;8.50;4.47;;;;;;;;;;5137755;27;20126;-76
2021/03/18 14:34:34;;;;;;;8.02;4.55;;;;;;;;;;5138190;27;20110;-77
2021/03/18 14:36:59;;;;;;;7.72;4.32;;;;;;;;;;5137919;27;20159;-76